Reeder, North Dakota
Current Conditions -  °F | °C
As of 10:53 PM on Saturday 20 Dec 2014 (Local Time) from KHEI Reporting Station
Clear Clear  
Wind Chill: 25°   Ceiling: Unl
Heat Index: 25°   Visibility: 10mi
Dew Point: 21°   Wind: 0mph
Humidity: 85%   Direction: NA
Pressure: 29.76"   Gusts: NA
Location:  46.11°N, 102.95°W
Report Text: KHEI 210553Z AUTO 00000KT 10SM CLR M04/M06 A2976 RMK AO2 SLP103 T10391061 10006 21050 57016
Loading
Personal Weather Stations






























Interactive Weather Map New forecast layout! Learn more

10-Day Weather Forecast

Advertisements
Track Severe Weather on mobile